Pagina principale
METAR-TAF:

METAR-TAF

Aeroporti :

Ginevra, Svizzera

Aeroporto di Ginevra-Cointrin

latitudine: 46-15N, longitudine: 006-08E, altezza: 420 m

Osservazione

Il bollettino è stato emesso 5 minuti fa, alle 13:50 UTC
Vento 10 kt da nord-est
Temperature 1°C
Umidità 75%
Pressione 1011 hPa
Visibilità: 7000 m
Cielo coperto ad un'altezza di 2300 ft

METAR: LSGG 241350Z 04010KT 7000 OVC023 01/M03 Q1011 NOSIG

Ora: 14:55 (13:55 UTC)

Previsione

Il bollettino è stato emesso 2 ore e 30 minuti fa, alle 11:25 UTC
Previsione valida dal 24 alle 12 UTC al 25 alle 18 UTC
Vento 10 kt da nord/nord-est
Visibilità: 7000 m
Cielo coperto ad un'altezza di 2000 ft
Evoluzione graduale
dal 25 alle 12 UTC al 25 alle 15 UTC
Vento 20 kt da nord-est con raffiche fino a 35 kt

TAF: LSGG 241125Z 2412/2518 03010KT 7000 OVC020 TX02/2415Z TNM02/2505Z TX01/2515Z BECMG 2512/2515 04020G35KT

Osservazioni e previsioni meteorologiche di più di 4000 aeroporti (messaggi METAR e TAF).

Le stazioni disponibili sono rappresentate dai dischi gialli e rossi sulla carta.

Puntare il mouse per vedere il nome della stazione.

Clicca sopra per visualizzare le osservazioni e previsioni meteorologiche.

Per cambiare la mappa : fare clic sui pulsanti verdi con una croce nera per ingrandire, il pulsante verde con un trattino per diminuire, o sulla freccia verde per le mappe adiacenti.


METAR-TAF: